Terminal Aerodrome Forecast
Issued by NWS Upton, NY

Home | Current Version | Previous Version | Text Only | Print | Product List | Glossary On
Versions: 1 2 3 4 5 6 7 8 9 10 11 12 13 14 15 16 17 18 19 20 21 22 23 24 25 26 27
000
FTUS41 KOKX 011400 AAA
TAFJFK
TAF AMD
KJFK 011432Z 0115/0218 03008KT 5SM BR OVC012
     FM011700 03013KT P6SM OVC015
      TEMPO 0118/0121 BKN025
     FM020000 02012KT P6SM OVC012
     FM021600 02012KT P6SM OVC020=

USA.gov is the U.S. government's official web portal to all federal, state and local government web resources and services.